ADDS METAR Data INFO
IDs: Format: Raw Decoded Include TAF

Data at: 1013 UTC 14 Dec 2017

KK88 140955Z AUTO 00000KT 10SM CLR M01/M04 A3004 RMK AO1 T10151036
KK88 140935Z AUTO 00000KT 10SM CLR M02/M03 A3004 RMK AO1 T10161035
KK88 140915Z AUTO 00000KT 10SM CLR M01/M03 A3003 RMK AO1 T10141031
KK88 140855Z AUTO 00000KT 10SM CLR M02/M04 A3003 RMK AO1 T10251045
KK88 140835Z AUTO 00000KT 10SM CLR M02/M04 A3001 RMK AO1 T10201045
KK88 140815Z AUTO 00000KT 10SM CLR M01/M04 A3001 RMK AO1 T10141041
KK88 140755Z AUTO 00000KT 10SM CLR 00/M03 A3001 RMK AO1 T10051035
KK88 140735Z AUTO 00000KT 10SM CLR 00/M03 A3000 RMK AO1 T10041034
KK88 140715Z AUTO 00000KT 10SM CLR 00/M03 A2999 RMK AO1 T00011032
KK88 140655Z AUTO 00000KT 10SM CLR 01/M03 A2999 RMK AO1 T00111028
KK88 140635Z AUTO 00000KT 10SM CLR 02/M03 A2999 RMK AO1 T00171027
KK88 140615Z AUTO 01008KT 10SM CLR 03/M02 A2999 RMK AO1 T00281023
KK88 140555Z AUTO 01010KT 10SM CLR 03/M02 A2999 RMK AO1 T00311022 10099 20031
KK88 140535Z AUTO 36009KT 10SM CLR 04/M02 A2998 RMK AO1 T00351025
KK88 140515Z AUTO 35008KT 10SM CLR 04/M03 A2996 RMK AO1 T00351030
KK88 140455Z AUTO 00000KT 10SM CLR 04/M03 A2996 RMK AO1 T00371030 401701002
KK88 140435Z AUTO 00000KT 10SM CLR 05/M03 A2995 RMK AO1 T00471028
KK88 140415Z AUTO 34008KT 10SM CLR 05/M03 A2994 RMK AO1 T00511027
KK88 140355Z AUTO 34009KT 10SM CLR 05/M03 A2994 RMK AO1 T00451030
KK88 140335Z AUTO 00000KT 10SM CLR 04/M04 A2993 RMK AO1 T00411036
KK88 140315Z AUTO 32006KT 10SM CLR 06/M03 A2993 RMK AO1 T00561032
KK88 140255Z AUTO 00000KT 10SM CLR 05/M03 A2992 RMK AO1 T00461035
KK88 140235Z AUTO 00000KT 10SM CLR 04/M04 A2992 RMK AO1 T00431038
KK88 140215Z AUTO 00000KT 10SM CLR 04/M04 A2992 RMK AO1 T00411040
KK88 140155Z AUTO 00000KT 10SM CLR 05/M04 A2991 RMK AO1 T00511040
KK88 140135Z AUTO 00000KT 10SM CLR 06/M04 A2991 RMK AO1 T00571042
KK88 140115Z AUTO 00000KT 10SM CLR 05/M04 A2989 RMK AO1 T00501041
KK88 140055Z AUTO 00000KT 10SM CLR 07/M04 A2989 RMK AO1 T00711042
KK88 140035Z AUTO 00000KT 10SM CLR 08/M04 A2988 RMK AO1 T00801040
KK88 140015Z AUTO 00000KT 10SM CLR 09/M04 A2987 RMK AO1 T00901042
KK88 132355Z AUTO 00000KT 10SM CLR 10/M04 A2987 RMK AO1 T01001043 10170 20091
KK88 132335Z AUTO 00000KT 7SM CLR 09/M05 A2986 RMK AO1 T00911047
KK88 132315Z AUTO 32004KT 10SM CLR 12/M04 A2986 RMK AO1 T01191045
KK88 132255Z AUTO 32009G16KT 10SM CLR 13/M04 A2984 RMK AO1 T01311043
KK88 132235Z AUTO 32010KT 10SM CLR 14/M04 A2984 RMK AO1 T01391040
KK88 132215Z AUTO 32010G15KT 10SM CLR 15/M04 A2984 RMK AO1 T01471040
KK88 132155Z AUTO 33015G21KT 10SM CLR 15/M04 A2983 RMK AO1 T01541041
KK88 132135Z AUTO 31017KT 10SM CLR 16/M04 A2982 RMK AO1 T01611037
KK88 132115Z AUTO 33019G23KT 10SM CLR 17/M03 A2981 RMK AO1 T01651035
KK88 132055Z AUTO 32012G22KT 10SM CLR 17/M03 A2981 RMK AO1 T01671028
KK88 132035Z AUTO 31012G23KT 10SM CLR 17/M03 A2981 RMK AO1 T01671028
KK88 132015Z AUTO 30014G21KT 10SM CLR 17/M03 A2981 RMK AO1 T01681029
KK88 131955Z AUTO 32014G24KT 10SM CLR 17/M03 A2981 RMK AO1 T01671027
KK88 131935Z AUTO 33020G25KT 10SM CLR 17/M03 A2980 RMK AO1 T01661031
KK88 131915Z AUTO 31017G23KT 10SM CLR 16/M03 A2981 RMK AO1 T01641035
KK88 131855Z AUTO 31021G30KT 10SM CLR 16/M03 A2981 RMK AO1 T01621035
KK88 131835Z AUTO 30017G25KT 10SM CLR 16/M04 A2981 RMK AO1 T01601042
KK88 131815Z AUTO 32015G23KT 10SM CLR 16/M04 A2982 RMK AO1 T01571042
KK88 131755Z AUTO 31017G24KT 10SM CLR 15/M05 A2982 RMK AO1 T01481046 10148 21002
KK88 131735Z AUTO 30014KT 10SM CLR 14/M05 A2984 RMK AO1 T01371046
KK88 131715Z AUTO 30013G16KT 10SM CLR 12/M04 A2984 RMK AO1 T01161045
KK88 131655Z AUTO 00000KT 10SM CLR 10/M03 A2985 RMK AO1 T00951026
KK88 131635Z AUTO 00000KT 10SM CLR 08/M03 A2985 RMK AO1 T00841029
KK88 131615Z AUTO 28007KT 10SM CLR 08/M03 A2985 RMK AO1 T00821032
KK88 131555Z AUTO 00000KT 10SM SCT070 07/M03 A2984 RMK AO1 T00721031
KK88 131535Z AUTO 00000KT 10SM CLR 05/M03 A2984 RMK AO1 T00491026
KK88 131515Z AUTO 00000KT 10SM CLR 04/M03 A2984 RMK AO1 T00391027
KK88 131455Z AUTO 23007KT 10SM CLR 03/M03 A2984 RMK AO1 T00261026
KK88 131435Z AUTO 22008KT 10SM CLR 02/M03 A2983 RMK AO1 T00171027
KK88 131415Z AUTO 22007KT 10SM CLR 01/M03 A2983 RMK AO1 T00061030
KK88 131355Z AUTO 22009KT 10SM CLR 00/M03 A2983 RMK AO1 T00011030
KK88 131335Z AUTO 21008KT 10SM CLR 00/M03 A2983 RMK AO1 T00001031
KK88 131315Z AUTO 21008KT 10SM CLR 00/M03 A2982 RMK AO1 T10021032
KK88 131255Z AUTO 23009KT 10SM CLR 01/M03 A2983 RMK AO1 T00051030
KK88 131235Z AUTO 22009KT 10SM CLR 01/M03 A2981 RMK AO1 T00101028
KK88 131215Z AUTO 20011KT 10SM CLR 01/M03 A2979 RMK AO1 T00111027
KK88 131155Z AUTO 19011KT 10SM CLR 01/M03 A2979 RMK AO1 T00101027 10015 20007
KK88 131135Z AUTO 20011KT 10SM CLR 01/M03 A2981 RMK AO1 T00101027
KK88 131115Z AUTO 19010KT 10SM CLR 01/M03 A2981 RMK AO1 T00131026
KK88 131055Z AUTO 19011KT 10SM CLR 01/M03 A2981 RMK AO1 T00121026
KK88 131035Z AUTO 19011KT 10SM CLR 01/M03 A2983 RMK AO1 T00131026
KK88 131015Z AUTO 18012KT 10SM CLR 01/M03 A2984 RMK AO1 T00121026
KK88 130955Z AUTO 19010G15KT 10SM CLR 01/M03 A2986 RMK AO1 T00131026
KK88 130935Z AUTO 19010KT 10SM CLR 02/M03 A2987 RMK AO1 T00151026
KK88 130915Z AUTO 19009KT 10SM CLR 02/M02 A2988 RMK AO1 T00151025
KK88 130855Z AUTO 19010KT 10SM CLR 01/M03 A2990 RMK AO1 T00121026
KK88 130835Z AUTO 19010KT 10SM CLR 02/M03 A2990 RMK AO1 T00151026
KK88 130815Z AUTO 18010KT 10SM CLR 02/M03 A2991 RMK AO1 T00151026
KK88 130755Z AUTO 18010KT 10SM CLR 02/M03 A2992 RMK AO1 T00151026
KK88 130735Z AUTO 18008KT 10SM CLR 02/M03 A2993 RMK AO1 T00151026
KK88 130715Z AUTO 19010KT 10SM CLR 02/M02 A2994 RMK AO1 T00151025
KK88 130655Z AUTO 19010KT 10SM CLR 02/M02 A2996 RMK AO1 T00151025
KK88 130635Z AUTO 19009KT 10SM CLR 01/M03 A2998 RMK AO1 T00101026
KK88 130615Z AUTO 19008KT 10SM CLR 01/M03 A2999 RMK AO1 T00081026
KK88 130555Z AUTO 19009KT 10SM CLR 01/M03 A3000 RMK AO1 T00071027 10015 21012
KK88 130535Z AUTO 18008KT 10SM CLR 01/M03 A3001 RMK AO1 T00121026
KK88 130515Z AUTO 18008KT 10SM CLR 01/M02 A3002 RMK AO1 T00131025
KK88 130455Z AUTO 19008KT 10SM CLR 01/M03 A3003 RMK AO1 T00101026 400661044
KK88 130435Z AUTO 19007KT 10SM CLR 01/M03 A3004 RMK AO1 T00081029
KK88 130415Z AUTO 19008KT 10SM CLR 01/M03 A3004 RMK AO1 T00081029
KK88 130355Z AUTO 19008KT 10SM CLR 01/M03 A3005 RMK AO1 T00051030
KK88 130335Z AUTO 19008KT 10SM CLR 00/M03 A3006 RMK AO1 T00011033
KK88 130320Z AUTO 00000KT 7SM CLR M01/M04 A3006 RMK AO1 T10081040
KK88 130255Z AUTO 00000KT 10SM CLR M01/M04 A3008 RMK AO1 T10061042
KK88 130235Z AUTO 00000KT 10SM CLR 00/M04 A3010 RMK AO1 T10041041
KK88 130215Z AUTO 00000KT 10SM CLR M01/M04 A3011 RMK AO1 T10091044
KK88 130155Z AUTO 00000KT 10SM CLR 00/M04 A3012 RMK AO1 T00001040
KK88 130135Z AUTO 00000KT 10SM CLR 00/M04 A3013 RMK AO1 T00021038
KK88 130120Z AUTO 00000KT 10SM CLR 00/M04 A3014 RMK AO1 T00011040
KK88 130055Z AUTO 00000KT 10SM CLR 00/M04 A3014 RMK AO1 T00001044
KK88 130035Z AUTO 00000KT 10SM CLR 00/M04 A3015 RMK AO1 T00021041
KK88 130015Z AUTO 00000KT 10SM CLR 00/M05 A3016 RMK AO1 T00021049
KK88 122355Z AUTO 00000KT 10SM CLR 02/M04 A3017 RMK AO1 T00201042 10066 20020
KK88 122335Z AUTO 00000KT 7SM CLR 03/M04 A3017 RMK AO1 T00251039
KK88 122315Z AUTO 00000KT 10SM CLR 04/M04 A3018 RMK AO1 T00361038
KK88 122255Z AUTO 00000KT 10SM CLR 05/M03 A3019 RMK AO1 T00521035
KK88 122235Z AUTO 00000KT 10SM CLR 06/M03 A3020 RMK AO1 T00611032
KK88 122215Z AUTO 00000KT 10SM CLR 07/M04 A3020 RMK AO1 T00651036